Main page
METAR-TAF:

METAR-TAF

Airports :

Mykonos International Airport

Mykonos, Greece

latitude: 37-26-09N, longitude: 025-20-45E, elevation: 123 m

Current weather observation

The report was made 2 hours and 37 minutes ago, at 17:50 UTC
Wind 10 kt from the Southeast
Temperature 15°C
Humidity 67%
Pressure 1015 hPa
Visibility 10 km or more
Few clouds at a height of 1500 ft

METAR: LGMK 151750Z 13010KT 9999 FEW015 15/09 Q1015

Time: 22:27 (20:27 UTC)

Forecast

The report was made 3 hours and 27 minutes ago, at 17:00 UTC
Forecast valid from 15 at 18 UTC to 16 at 03 UTC
Wind 16 kt from the South/Southeast
Visibility 10 km or more
Few clouds at a height of 1500 ft
Scattered clouds at a height of 2500 ft
Temporary
from 15 at 18 UTC to 15 at 21 UTC
Wind 16 kt from the South/Southeast with gusts up to 26 kt

TAF: LGMK 151700Z 1518/1603 15016KT 9999 FEW015 SCT025 TEMPO 1518/1521 15016G26KT

Weather observations and forecasts of more than 4000 airports (METAR and TAF reports).

The available stations are represented by yellow and red dots on the map.

Hover mouse over dot to see the name of the station.

Then click to see weather observations and forecasts.

To change the map : click on the green buttons with a black cross to zoom in, on the green button with a dash to zoom out, or on the green arrows for adjacent maps.


METAR-TAF: